Fremont, Indiana
Current Conditions -  °F | °C
As of 3:35 AM on Thursday 27 Nov 2014 (Local Time) from KANQ Reporting Station
Overcast Overcast  
Wind Chill: 27°   Ceiling: 3700
Heat Index: 27°   Visibility: 10mi
Dew Point: 16°   Wind: 3mph
Humidity: 64%   Direction: 340°NNW
Pressure: 30.13"   Gusts: NA
Location:  41.73°N, 84.93°W
Report Text: KANQ 270835Z AUTO 34003KT 10SM OVC037 M03/M09 A3013 RMK
Loading
Personal Weather Stations






























Interactive Weather Map New forecast layout! Learn more

10-Day Weather Forecast

Advertisements
Track Severe Weather on mobile